createdAt,value
2022-10-20T00:15:28.840Z,9.90
2022-10-20T00:18:16.696Z,9.93
2022-10-20T00:21:08.133Z,10.87
2022-10-20T00:23:56.535Z,12.20
2022-10-20T00:26:45.378Z,10.00
2022-10-20T00:29:33.152Z,10.17
2022-10-20T00:32:21.035Z,10.90
2022-10-20T00:35:09.777Z,10.83
2022-10-20T00:37:57.412Z,9.93
2022-10-20T00:40:45.575Z,10.40
2022-10-20T00:43:46.722Z,11.40
2022-10-20T00:46:40.220Z,9.80
2022-10-20T00:49:27.980Z,9.10
2022-10-20T01:29:54.503Z,8.83
2022-10-20T01:33:09.478Z,7.43
2022-10-20T01:36:05.847Z,8.07
2022-10-20T01:39:01.234Z,10.83
2022-10-20T01:41:54.009Z,9.17
2022-10-20T01:44:43.561Z,12.37
2022-10-20T01:47:36.102Z,10.37
2022-10-20T06:51:36.551Z,36.23
2022-10-20T06:54:23.989Z,31.53
2022-10-20T06:57:11.688Z,32.90
2022-10-20T06:59:59.604Z,40.43
2022-10-20T07:02:47.048Z,31.90
2022-10-20T07:05:36.192Z,37.50
2022-10-20T07:08:28.023Z,36.70
2022-10-20T07:47:46.894Z,21.50
2022-10-20T07:50:35.217Z,21.63
2022-10-20T07:53:23.109Z,19.03
2022-10-20T07:56:11.122Z,15.30
2022-10-20T07:59:01.111Z,15.40
2022-10-20T08:01:48.962Z,16.70
2022-10-20T08:04:36.649Z,13.83
2022-10-20T08:07:24.518Z,13.73
2022-10-20T08:10:12.227Z,12.43
2022-10-20T08:13:00.283Z,14.27
2022-10-20T08:15:54.545Z,13.57
2022-10-20T08:18:47.945Z,11.13
2022-10-20T08:21:35.769Z,10.90
2022-10-20T08:24:23.712Z,11.27
2022-10-20T08:27:11.545Z,10.37
2022-10-20T08:30:06.233Z,10.37
2022-10-20T08:33:02.448Z,10.43
2022-10-20T08:35:50.047Z,10.83
2022-10-20T08:38:38.550Z,12.07
2022-10-20T08:41:34.554Z,13.65
2022-10-20T08:44:27.653Z,11.73
2022-10-20T08:47:29.377Z,11.60
2022-10-20T08:50:22.853Z,9.73
2022-10-20T08:53:12.648Z,10.35
2022-10-20T08:56:00.243Z,9.45
2022-10-20T08:58:48.253Z,9.93
2022-10-20T09:01:37.212Z,8.43
2022-10-20T09:04:28.166Z,9.25
2022-10-20T09:07:25.981Z,8.13
2022-10-20T09:10:25.343Z,8.95
2022-10-20T09:13:23.588Z,11.85
2022-10-20T09:16:27.173Z,8.05
2022-10-20T09:19:25.046Z,7.75
2022-10-20T09:22:14.511Z,6.55
2022-10-20T09:25:03.476Z,7.22
2022-10-20T09:27:51.851Z,6.32
2022-10-20T09:30:39.342Z,7.25
2022-10-20T09:33:30.892Z,7.18
2022-10-20T09:36:21.519Z,9.88
2022-10-20T09:39:21.237Z,7.22
2022-10-20T09:42:16.314Z,5.22
2022-10-20T09:45:08.575Z,5.47
2022-10-20T09:48:01.365Z,5.18
2022-10-20T09:50:55.197Z,4.78
2022-10-20T09:53:53.110Z,4.63
2022-10-20T09:56:43.243Z,5.65
2022-10-20T09:59:35.136Z,4.47
2022-10-20T10:02:32.307Z,5.50
2022-10-20T10:05:21.911Z,3.60
2022-10-20T10:08:16.099Z,3.15
2022-10-20T10:11:07.334Z,4.15
2022-10-20T10:13:55.327Z,3.20
2022-10-20T10:16:44.665Z,3.63
2022-10-20T10:19:34.917Z,3.47
2022-10-20T10:22:22.754Z,4.07
2022-10-20T10:25:19.365Z,5.90
2022-10-20T10:28:21.215Z,3.47
2022-10-20T10:31:25.050Z,3.42
2022-10-20T10:34:33.511Z,2.63
2022-10-20T10:40:17.913Z,4.93
2022-10-20T10:43:22.246Z,2.97
2022-10-20T10:46:15.236Z,4.25
2022-10-20T10:49:34.625Z,2.92
2022-10-20T10:52:36.907Z,2.67
2022-10-20T10:55:47.765Z,3.10
2022-10-20T10:58:46.304Z,3.08
2022-10-20T11:01:52.172Z,3.17
2022-10-20T11:08:15.213Z,3.63
2022-10-20T11:11:14.415Z,3.78
2022-10-20T11:14:16.284Z,4.60
2022-10-20T11:17:28.345Z,3.90
2022-10-20T11:20:27.550Z,4.03
2022-10-20T11:24:03.040Z,5.85
2022-10-20T11:26:54.595Z,5.72
2022-10-20T11:29:47.252Z,4.30
2022-10-20T11:32:40.862Z,5.78
2022-10-20T11:35:40.635Z,7.47
2022-10-20T11:38:33.218Z,7.00
2022-10-20T11:41:26.488Z,3.88
2022-10-20T11:44:16.829Z,5.35
2022-10-20T11:47:08.890Z,2.80
2022-10-20T11:49:56.424Z,3.70
2022-10-20T11:53:04.692Z,3.55
2022-10-20T11:56:30.602Z,3.28
2022-10-20T11:59:36.850Z,4.45
2022-10-20T12:02:52.434Z,5.10
2022-10-20T12:06:11.309Z,3.08
2022-10-20T12:09:27.458Z,4.55
2022-10-20T12:12:20.629Z,4.18
2022-10-20T12:15:22.543Z,3.42
2022-10-20T12:18:22.331Z,5.97
2022-10-20T12:21:12.954Z,3.08
2022-10-20T12:24:06.055Z,3.10
2022-10-20T12:27:27.711Z,3.50
2022-10-20T12:30:44.432Z,3.15
2022-10-20T12:34:00.584Z,5.03
2022-10-20T12:36:48.480Z,5.10
2022-10-20T12:39:37.656Z,5.25
2022-10-20T12:42:30.962Z,4.85
2022-10-20T12:45:31.072Z,4.68
2022-10-20T12:48:23.666Z,3.67
2022-10-20T12:51:24.587Z,3.80
2022-10-20T12:54:22.461Z,4.20
2022-10-20T12:57:29.444Z,4.07
2022-10-20T13:00:58.436Z,2.70
2022-10-20T13:03:47.881Z,5.82
2022-10-20T13:06:45.631Z,2.97
2022-10-20T13:09:53.716Z,3.30
2022-10-20T13:12:42.927Z,3.88
2022-10-20T13:15:33.651Z,6.43
2022-10-20T13:18:28.725Z,2.70
2022-10-20T13:21:27.184Z,3.60
2022-10-20T13:24:18.019Z,2.90
2022-10-20T13:27:10.811Z,3.58
2022-10-20T13:29:59.865Z,7.13
2022-10-20T13:33:11.179Z,3.63
2022-10-20T13:36:10.405Z,3.05
2022-10-20T13:39:05.531Z,4.97
2022-10-20T13:42:01.760Z,4.15
2022-10-20T13:45:01.979Z,3.45
2022-10-20T13:47:56.858Z,7.28
2022-10-20T13:50:47.798Z,3.72
2022-10-20T13:53:40.265Z,3.80
2022-10-20T13:56:35.086Z,3.78
2022-10-20T13:59:25.817Z,2.97
2022-10-20T14:02:26.795Z,2.75
2022-10-20T14:05:15.445Z,3.25
2022-10-20T14:08:06.313Z,5.03
2022-10-20T14:10:58.164Z,3.28
2022-10-20T14:13:46.621Z,5.75
2022-10-20T14:16:35.049Z,3.75
2022-10-20T14:19:28.158Z,4.38
2022-10-20T14:22:21.411Z,4.47
2022-10-20T14:25:12.066Z,4.38
2022-10-20T14:28:02.761Z,4.72
2022-10-20T14:30:53.627Z,5.05
2022-10-20T14:33:44.385Z,4.28
2022-10-20T14:36:34.613Z,3.50
2022-10-20T14:39:30.158Z,3.30
2022-10-20T14:42:23.288Z,4.22
2022-10-20T14:45:20.600Z,4.35
2022-10-20T14:48:15.315Z,4.72
2022-10-20T14:51:03.341Z,6.30
2022-10-20T14:53:52.465Z,5.35
2022-10-20T14:56:45.031Z,7.60
2022-10-20T14:59:34.826Z,3.97
2022-10-20T15:02:24.512Z,4.10
2022-10-20T15:05:24.931Z,5.80
2022-10-20T15:08:27.116Z,5.18
2022-10-20T15:11:27.095Z,4.35
2022-10-20T15:14:17.389Z,4.55
2022-10-20T15:17:05.230Z,5.60
2022-10-20T15:19:53.020Z,5.40
2022-10-20T15:22:40.588Z,5.53
2022-10-20T15:25:30.051Z,8.43
2022-10-20T15:28:27.266Z,6.75
2022-10-20T15:31:21.004Z,5.72
2022-10-20T15:39:45.633Z,6.47
2022-10-20T15:42:33.264Z,5.93
2022-10-20T15:45:25.895Z,6.72
2022-10-20T15:48:13.381Z,5.18
2022-10-20T16:19:05.320Z,5.53
2022-10-20T16:21:52.651Z,6.40
2022-10-20T16:30:16.620Z,7.47
2022-10-20T16:33:04.380Z,12.67
2022-10-20T16:35:53.598Z,10.87
2022-10-20T16:38:41.772Z,14.73
2022-10-20T17:06:42.510Z,14.93
2022-10-20T17:09:31.598Z,14.20
2022-10-20T17:12:20.036Z,14.70
2022-10-20T17:40:22.334Z,18.63
2022-10-20T17:43:11.823Z,15.60
2022-10-20T17:46:01.400Z,16.73
2022-10-20T17:48:49.509Z,21.67
2022-10-20T17:51:36.947Z,21.33
2022-10-20T17:54:24.849Z,18.13
2022-10-20T17:57:12.674Z,20.20
2022-10-20T18:00:07.754Z,17.47
2022-10-20T18:02:57.910Z,23.70
2022-10-20T18:05:45.673Z,16.70
2022-10-20T20:14:58.175Z,11.57
2022-10-20T20:17:46.498Z,10.90
2022-10-20T20:20:34.081Z,13.50
2022-10-20T20:23:25.910Z,14.87
2022-10-20T20:26:23.063Z,10.50
2022-10-20T20:29:11.640Z,13.70
2022-10-20T20:32:00.744Z,12.67
2022-10-20T20:34:48.452Z,13.73
2022-10-20T20:37:36.444Z,14.00
2022-10-20T20:40:24.255Z,17.70
2022-10-20T20:43:12.168Z,15.10
2022-10-20T20:46:04.455Z,19.60
2022-10-20T20:48:53.626Z,13.37
2022-10-20T20:51:41.663Z,16.07
2022-10-20T20:54:32.221Z,15.67
2022-10-20T20:57:20.792Z,16.43
2022-10-20T21:00:09.926Z,16.00
2022-10-20T21:02:57.394Z,16.23
2022-10-20T21:05:46.465Z,15.00
2022-10-20T21:08:34.263Z,16.83
2022-10-20T21:11:23.624Z,15.03
2022-10-20T21:14:11.494Z,16.33
2022-10-20T21:16:59.565Z,15.60
2022-10-20T21:19:47.404Z,17.87
2022-10-20T21:22:36.795Z,17.83
2022-10-20T21:25:24.946Z,19.67
2022-10-20T21:28:13.035Z,17.10
2022-10-20T21:31:01.841Z,17.80
2022-10-20T21:33:52.297Z,18.77
2022-10-20T21:36:41.106Z,16.13
2022-10-20T21:42:19.093Z,21.67
2022-10-20T21:45:07.782Z,16.30
2022-10-20T21:47:56.359Z,16.57
2022-10-20T21:50:44.290Z,19.17
2022-10-20T21:53:32.266Z,18.50
2022-10-20T21:56:21.587Z,18.00
2022-10-20T21:59:13.524Z,18.67
2022-10-20T22:02:02.438Z,17.53
2022-10-20T22:04:49.887Z,16.13
2022-10-20T22:07:37.449Z,14.40
2022-10-20T22:10:25.449Z,13.60
2022-10-20T22:13:14.710Z,15.87
2022-10-20T22:16:02.914Z,21.27
2022-10-20T22:18:55.041Z,17.03
2022-10-20T22:21:44.688Z,15.50
2022-10-20T22:24:35.627Z,19.37
2022-10-20T22:27:41.468Z,24.83
2022-10-20T22:30:31.297Z,27.43
2022-10-20T22:36:07.638Z,30.00
2022-10-20T22:38:55.398Z,26.30
2022-10-20T22:41:43.229Z,24.90
2022-10-20T22:44:31.194Z,25.73
2022-10-20T22:47:20.269Z,27.73
2022-10-20T22:50:09.078Z,19.87
2022-10-20T22:52:56.621Z,19.80
2022-10-20T23:26:34.522Z,20.63
2022-10-20T23:29:22.151Z,18.03
2022-10-20T23:32:10.163Z,20.07
2022-10-20T23:34:58.512Z,20.33
2022-10-20T23:37:47.398Z,16.53
2022-10-20T23:40:35.123Z,17.77
2022-10-20T23:43:22.996Z,18.07
2022-10-20T23:46:12.146Z,19.10
2022-10-20T23:49:00.714Z,24.47
2022-10-20T23:51:48.613Z,24.77
2022-10-20T23:54:37.803Z,17.63
2022-10-20T23:57:25.419Z,19.63
